Terminal Aerodrome Forecast
Issued by NWS

Home | Current Version | Previous Version | Text Only | Print | Product List | Glossary On
Versions: 1 2 3 4 5 6 7 8 9 10 11 12 13 14 15 16 17 18 19 20 21 22 23 24 25 26 27 28 29 30 31 32 33 34 35 36
000
FTUS44 KLIX 181732
TAFASD
TAF
KASD 181732Z 1818/1918 19006KT P6SM SCT019
     FM190100 14002KT P6SM BKN050
     FM190400 15003KT 5SM BR BKN025
     FM190800 14005KT 2SM BR BKN003
     FM191000 14005KT 1/2SM FG BKN003
     FM191330 14004KT 2SM BR BKN008
     FM191500 14006KT P6SM BKN025=

USA.gov is the U.S. government's official web portal to all federal, state and local government web resources and services.